Waynesville, Ohio
Current Conditions -  °F | °C
As of 6:53 PM on Friday 21 Nov 2014 (Local Time) from KMGY Reporting Station
Clear Clear  
Wind Chill: 18°   Ceiling: Unl
Heat Index: 25°   Visibility: 10mi
Dew Point:   Wind: 6mph
Humidity: 51%   Direction: 110°ESE
Pressure: 30.44"   Gusts: NA
Location:  39.53°N, 84.09°W
Report Text: KMGY 212353Z AUTO 11005KT 10SM CLR M04/M13 A3044 RMK AO2 SLP323 T10391128 11011 21039 57003
Loading
Personal Weather Stations






























Interactive Weather Map New forecast layout! Learn more

10-Day Weather Forecast

Advertisements
Track Severe Weather on mobile